Latest Weather Observations for Ulladulla

IDN60901

Issued at 2:41 pm EST Saturday 30 May 2015 (issued every 10 minutes, with the page automatically refreshed every 10 minutes)

About weather observations | Map of Canberra area stations | Latest observations for Canberra area | Other Formats
Station Details ID: 069138 Name: ULLADULLA AWS Lat: -35.36 Lon: 150.48 Height: 35.7 m
Data from the previous 72 hours. | See also: Recent months at Ulladulla
Date/Time
EST
Tmp

°C
App
Tmp
°C
Dew
Point
°C
Rel
Hum
%
Delta-T

°C
Wind Press
QNH
hPa
Press
MSL
hPa
Rain
since
9 am
mm
Dir
 
Spd
km/h
Gust
km/h
Spd
kts
Gust
kts
30/02:30pm 16.1 13.0 5.7 50 5.0 NW 11 15 6 8 1016.2 1016.2 0.0
30/02:00pm 15.8 12.7 5.4 50 5.0 WNW 11 20 6 11 1016.5 1016.5 0.0
30/01:30pm 16.9 13.6 4.6 44 5.8 W 11 20 6 11 1016.7 1016.7 0.0
30/01:00pm 15.5 12.4 5.7 52 4.7 WNW 11 20 6 11 1017.1 1017.1 0.0
30/12:30pm 14.5 11.9 4.2 50 4.7 WNW 7 9 4 5 1017.8 1017.8 0.0
30/12:00pm 14.8 12.4 4.5 50 4.8 W 6 15 3 8 1018.5 1018.5 0.0
30/11:30am 15.6 12.3 4.3 47 5.3 NW 11 17 6 9 1018.7 1018.7 0.0
30/11:00am 14.9 10.8 2.4 43 5.5 NW 13 28 7 15 1019.4 1019.4 0.0
30/10:30am 14.6 10.9 4.3 50 4.8 WNW 13 22 7 12 1019.9 1019.9 0.0
30/10:00am 14.6 10.9 4.3 50 4.7 W 13 24 7 13 1020.2 1020.2 0.0
30/09:30am 14.1 10.0 4.1 51 4.6 W 15 22 8 12 1020.5 1020.5 0.0
30/09:00am 13.6 9.8 3.9 52 4.4 WNW 13 20 7 11 1020.4 1020.4 0.2
30/08:30am 13.4 10.1 4.3 54 4.2 W 11 22 6 12 1020.5 1020.5 0.2
30/08:00am 13.2 9.8 4.1 54 4.1 WNW 11 19 6 10 1020.6 1020.6 0.2
30/07:30am 12.3 8.5 3.8 56 3.8 WNW 13 22 7 12 1020.4 1020.4 0.2
30/07:00am 11.7 8.6 3.7 58 3.5 WNW 9 17 5 9 1020.4 1020.4 0.2
30/06:30am 11.9 8.8 3.7 57 3.7 WNW 9 19 5 10 1020.3 1020.3 0.2
30/06:00am 12.0 9.0 4.0 58 3.6 WNW 9 19 5 10 1020.4 1020.4 0.2
30/05:30am 12.4 9.0 3.9 56 3.8 WNW 11 19 6 10 1020.4 1020.4 0.2
30/05:00am 12.7 8.6 4.2 56 3.8 WNW 15 24 8 13 1020.6 1020.6 0.2
30/04:30am 12.9 9.1 4.1 55 4.0 WNW 13 24 7 13 1020.6 1020.6 0.2
30/04:00am 13.0 9.6 3.9 54 4.1 WNW 11 19 6 10 1021.0 1021.0 0.2
30/03:30am 13.0 9.6 4.2 55 4.0 W 11 22 6 12 1021.0 1021.0 0.2
30/03:00am 13.4 9.8 4.8 56 4.0 WNW 13 20 7 11 1021.5 1021.5 0.2
30/02:30am 12.7 9.9 5.1 60 3.5 W 9 17 5 9 1021.4 1021.4 0.2
30/02:00am 12.8 9.7 5.5 61 3.4 WSW 11 20 6 11 1021.6 1021.6 0.2
30/01:30am 13.0 9.9 5.7 61 3.4 WSW 11 20 6 11 1021.5 1021.5 0.2
30/01:00am 13.1 10.1 6.0 62 3.3 W 11 19 6 10 1021.5 1021.5 0.2
30/12:30am 13.0 10.4 6.1 63 3.3 W 9 15 5 8 1021.7 1021.7 0.2
30/12:00am 12.8 10.9 6.8 67 2.9 W 6 11 3 6 1021.9 1021.9 0.2
 
Date/Time
EST
Tmp

°C
App
Tmp
°C
Dew
Point
°C
Rel
Hum
%
Delta-T

°C
Wind Press
QNH
hPa
Press
MSL
hPa
Rain
since
9 am
mm
Dir
 
Spd
km/h
Gust
km/h
Spd
kts
Gust
kts
29/11:30pm 13.0 11.0 7.0 67 2.9 W 7 11 4 6 1021.9 1021.9 0.2
29/11:00pm 13.6 11.6 6.9 64 3.2 W 7 11 4 6 1021.8 1021.8 0.2
29/10:30pm 14.1 11.8 7.4 64 3.3 WNW 9 17 5 9 1021.9 1021.9 0.2
29/10:00pm 14.3 12.3 8.5 68 2.9 WNW 9 13 5 7 1022.0 1022.0 0.2
29/09:30pm 14.8 13.4 9.4 70 2.8 WNW 7 15 4 8 1022.0 1022.0 0.2
29/09:00pm 14.2 13.7 11.9 86 1.2 NW 6 9 3 5 1022.2 1022.2 0.2
29/08:30pm 15.1 15.1 12.4 84 1.5 NW 4 9 2 5 1021.9 1021.9 0.2
29/08:00pm 16.4 16.3 13.3 82 1.7 NNW 6 9 3 5 1021.9 1021.9 0.2
29/07:30pm 16.8 17.8 13.1 79 2.1 CALM 0 7 0 4 1022.1 1022.1 0.2
29/07:00pm 17.1 17.3 13.2 78 2.2 NW 4 6 2 3 1021.9 1021.9 0.2
29/06:30pm 17.0 16.6 13.1 78 2.2 NE 7 11 4 6 1021.3 1021.3 0.2
29/06:00pm 16.7 16.4 12.8 78 2.2 ESE 6 9 3 5 1021.2 1021.2 0.2
29/05:30pm 16.4 16.1 13.3 82 1.7 SW 7 9 4 5 1020.9 1020.9 0.2
29/05:00pm 16.9 16.8 13.4 80 2.0 WSW 6 11 3 6 1020.4 1020.4 0.2
29/04:30pm 17.7 16.6 13.0 74 2.6 ESE 11 24 6 13 1019.7 1019.7 0.0
29/04:00pm 18.0 17.7 13.3 74 2.6 SE 7 17 4 9 1020.0 1020.0 0.0
29/03:30pm 17.8 17.0 12.9 73 2.7 SE 9 17 5 9 1019.8 1019.8 0.0
29/03:00pm 18.5 17.5 13.4 72 2.9 SSE 11 19 6 10 1019.7 1019.7 0.0
29/02:30pm 18.7 17.8 13.6 72 2.9 SSE 11 20 6 11 1019.4 1019.4 0.0
29/02:00pm 19.0 17.7 13.8 72 3.0 SSE 13 20 7 11 1019.1 1019.1 0.0
29/01:30pm 18.9 17.6 13.7 72 3.0 SSE 13 22 7 12 1019.1 1019.1 0.0
29/01:00pm 19.0 17.4 13.8 72 3.0 S 15 20 8 11 1019.1 1019.1 0.0
29/12:30pm 19.7 17.6 13.6 68 3.5 S 17 24 9 13 1018.8 1018.8 0.0
29/12:00pm 20.9 19.3 10.1 50 5.8 W 9 17 5 9 1019.3 1019.3 0.0
29/11:30am 20.4 18.1 10.5 53 5.4 WNW 13 20 7 11 1019.3 1019.3 0.0
29/11:00am 19.9 18.6 11.4 58 4.7 W 9 19 5 10 1019.1 1019.1 0.0
29/10:30am 20.2 17.9 10.6 54 5.2 W 13 22 7 12 1019.2 1019.2 0.0
29/10:00am 19.4 18.1 11.2 59 4.5 W 9 19 5 10 1019.4 1019.4 0.0
29/09:30am 17.7 16.3 11.0 65 3.6 WNW 9 19 5 10 1019.1 1019.1 0.0
29/09:00am 17.5 15.9 11.5 68 3.3 NW 11 17 6 9 1019.1 1019.1 0.0
29/08:30am 16.2 14.6 11.6 74 2.5 NW 11 15 6 8 1018.8 1018.8 0.0
29/08:00am 15.6 14.1 11.8 78 2.1 NW 11 17 6 9 1018.6 1018.6 0.0
29/07:30am 15.6 14.1 12.0 79 2.0 NNW 11 15 6 8 1018.3 1018.3 0.0
29/07:00am 15.9 14.0 11.9 77 2.2 NNW 13 19 7 10 1018.1 1018.1 0.0
29/06:30am 15.7 13.9 12.1 79 2.0 NNW 13 20 7 11 1018.0 1018.0 0.0
29/06:00am 15.7 13.9 12.1 79 2.0 NNW 13 20 7 11 1017.5 1017.5 0.0
29/05:30am 15.5 14.4 11.9 79 2.0 NW 9 17 5 9 1017.2 1017.2 0.0
29/05:00am 15.8 16.0 12.9 83 1.6 NNW 4 7 2 4 1017.1 1017.1 0.0
29/04:30am 16.4 15.9 13.7 84 1.5 N 9 19 5 10 1016.8 1016.8 0.0
29/04:00am 16.0 15.7 13.3 84 1.5 NNW 7 15 4 8 1017.1 1017.1 0.0
29/03:30am 16.1 15.4 13.2 83 1.6 N 9 19 5 10 1017.1 1017.1 0.0
29/03:00am 16.7 15.8 13.8 83 1.6 N 11 17 6 9 1016.9 1016.9 0.0
29/02:30am 16.8 15.8 13.3 80 2.0 N 11 17 6 9 1017.0 1017.0 0.0
29/02:00am 17.2 14.4 12.7 75 2.5 NNW 19 32 10 17 1017.0 1017.0 0.0
29/01:30am 18.0 16.2 12.2 69 3.2 NNW 13 22 7 12 1017.4 1017.4 0.0
29/01:00am 17.9 16.8 12.1 69 3.2 NNW 9 15 5 8 1017.4 1017.4 0.0
29/12:30am 17.4 16.8 12.3 72 2.8 NW 7 13 4 7 1017.7 1017.7 0.0
29/12:00am 16.7 16.4 12.8 78 2.2 NNW 6 9 3 5 1018.1 1018.1 0.0
 
Date/Time
EST
Tmp

°C
App
Tmp
°C
Dew
Point
°C
Rel
Hum
%
Delta-T

°C
Wind Press
QNH
hPa
Press
MSL
hPa
Rain
since
9 am
mm
Dir
 
Spd
km/h
Gust
km/h
Spd
kts
Gust
kts
28/11:30pm 16.8 16.3 12.7 77 2.3 N 7 9 4 5 1018.4 1018.4 0.0
28/11:00pm 16.8 15.6 12.9 78 2.2 N 11 20 6 11 1018.3 1018.3 0.0
28/10:30pm 16.6 16.0 12.4 76 2.3 N 7 15 4 8 1018.7 1018.7 0.0
28/10:00pm 16.1 15.4 12.1 77 2.2 NNW 7 11 4 6 1019.1 1019.1 0.0
28/09:30pm 15.5 14.6 11.3 76 2.3 NNW 7 9 4 5 1019.3 1019.3 0.0
28/09:00pm 15.7 14.8 11.5 76 2.3 NNW 7 9 4 5 1019.2 1019.2 0.0
28/08:30pm 15.9 14.9 11.1 73 2.6 NNW 7 9 4 5 1019.0 1019.0 0.0
28/08:00pm 16.3 15.2 10.8 70 2.9 N 7 11 4 6 1019.1 1019.1 0.0
28/07:30pm 16.8 15.9 11.3 70 3.0 N 7 13 4 7 1019.1 1019.1 0.0
28/07:00pm 16.8 16.1 11.9 73 2.7 NNW 7 11 4 6 1018.9 1018.9 0.0
28/06:30pm 17.3 16.5 11.8 70 3.0 N 7 13 4 7 1019.0 1019.0 0.0
28/06:00pm 17.6 16.3 11.2 66 3.5 N 9 15 5 8 1019.0 1019.0 0.0
28/05:30pm 17.4 15.8 10.3 63 3.8 NW 9 13 5 7 1019.2 1019.2 0.0
28/05:00pm 18.1 16.7 11.0 63 3.8 NNW 9 17 5 9 1019.0 1019.0 0.0
28/04:30pm 18.7 17.3 11.0 61 4.2 NNW 9 17 5 9 1019.1 1019.1 0.0
28/04:00pm 19.8 18.4 10.8 56 4.9 NNW 9 13 5 7 1018.9 1018.9 0.0
28/03:30pm 20.6 18.4 10.7 53 5.4 NW 13 22 7 12 1018.9 1018.9 0.0
28/03:00pm 21.4 21.2 11.7 54 5.4 NW 4 7 2 4 1018.9 1018.9 0.0
28/02:30pm 20.0 20.0 11.2 57 4.8 NNW 2 6 1 3 1018.9 1018.9 0.0
28/02:00pm 20.4 19.5 10.8 54 5.2 NNE 6 9 3 5 1019.0 1019.0 0.0
28/01:30pm 20.4 20.1 11.3 56 5.0 SE 4 7 2 4 1019.2 1019.2 0.0
28/01:00pm 19.4 19.2 11.9 62 4.1 ENE 4 9 2 5 1019.5 1019.5 0.0
28/12:30pm 20.2 19.4 11.1 56 5.0 S 6 9 3 5 1019.9 1019.9 0.0
28/12:00pm 20.3 19.7 10.4 53 5.4 NNE 4 7 2 4 1020.2 1020.2 0.0
28/11:30am 20.2 19.4 11.1 56 5.0 NNE 6 7 3 4 1020.8 1020.8 0.0
28/11:00am 20.1 19.5 11.6 58 4.7 NNE 6 9 3 5 1021.2 1021.2 0.0
28/10:30am 20.0 19.6 11.2 57 4.8 N 4 7 2 4 1021.6 1021.6 0.0
28/10:00am 19.2 18.6 11.7 62 4.1 NNE 6 9 3 5 1021.9 1021.9 0.0
28/09:30am 18.8 17.5 10.1 57 4.7 NNW 7 13 4 7 1021.8 1021.8 0.0
28/09:00am 17.7 15.6 9.6 59 4.2 NNW 11 17 6 9 1021.8 1021.8 0.0
28/08:30am 16.7 14.0 8.9 60 4.0 NW 13 24 7 13 1021.7 1021.7 0.0
28/08:00am 15.6 14.1 8.6 63 3.5 NNW 6 15 3 8 1021.7 1021.7 0.0
28/07:30am 15.3 14.3 9.0 66 3.2 NW 4 7 2 4 1021.7 1021.7 0.0
28/07:00am 13.6 12.0 8.0 69 2.8 NW 6 7 3 4 1021.4 1021.4 0.0
28/06:30am 13.2 11.4 7.9 70 2.6 NW 7 9 4 5 1021.3 1021.3 0.0
28/06:00am 13.9 12.3 8.1 68 2.9 WNW 6 7 3 4 1021.0 1021.0 0.0
28/05:30am 13.5 11.9 8.6 72 2.5 WNW 7 9 4 5 1020.6 1020.6 0.0
28/05:00am 12.9 11.3 8.0 72 2.4 W 6 7 3 4 1020.6 1020.6 0.0
28/04:30am 13.0 10.9 8.1 72 2.4 W 9 11 5 6 1020.8 1020.8 0.0
28/04:00am 13.4 11.7 8.3 71 2.5 W 7 9 4 5 1020.9 1020.9 0.0
28/03:30am 13.8 12.2 8.2 69 2.8 WNW 6 9 3 5 1020.9 1020.9 0.0
28/03:00am 13.4 11.6 8.0 70 2.7 W 7 9 4 5 1020.9 1020.9 0.0
28/02:30am 14.0 12.8 8.0 67 3.0 WSW 4 7 2 4 1021.1 1021.1 0.0
28/02:00am 14.5 14.2 8.7 68 2.9 CALM 0 0 0 0 1021.3 1021.3 0.0
28/01:30am 14.9 14.6 8.8 67 3.1 CALM 0 0 0 0 1021.3 1021.3 0.0
28/01:00am 15.2 14.9 8.7 65 3.3 CALM 0 0 0 0 1021.4 1021.4 0.0
28/12:30am 16.0 14.5 8.5 61 3.8 NW 6 11 3 6 1021.3 1021.3 0.0
28/12:00am 15.9 15.2 8.4 61 3.8 WNW 2 7 1 4 1021.4 1021.4 0.0
 
Date/Time
EST
Tmp

°C
App
Tmp
°C
Dew
Point
°C
Rel
Hum
%
Delta-T

°C
Wind Press
QNH
hPa
Press
MSL
hPa
Rain
since
9 am
mm
Dir
 
Spd
km/h
Gust
km/h
Spd
kts
Gust
kts
27/11:30pm 16.3 13.9 8.8 61 3.9 NW 11 20 6 11 1021.3 1021.3 0.0
27/11:00pm 16.1 14.1 8.8 62 3.7 NW 9 13 5 7 1021.4 1021.4 0.0
27/10:30pm 16.8 15.3 9.0 60 4.0 WNW 7 17 4 9 1021.6 1021.6 0.0
27/10:00pm 16.7 14.0 8.9 60 4.0 W 13 22 7 12 1021.6 1021.6 0.0
27/09:30pm 17.0 14.2 8.7 58 4.3 W 13 20 7 11 1021.4 1021.4 0.0
27/09:00pm 17.0 14.2 8.7 58 4.3 WNW 13 24 7 13 1021.4 1021.4 0.0
27/08:30pm 16.8 13.7 8.8 59 4.1 WNW 15 22 8 12 1021.5 1021.5 0.0
27/08:00pm 16.6 13.4 8.6 59 4.1 WNW 15 28 8 15 1021.5 1021.5 0.0
27/07:30pm 16.9 14.2 8.8 59 4.2 WNW 13 22 7 12 1021.4 1021.4 0.0
27/07:00pm 16.4 14.1 9.1 62 3.8 NW 11 15 6 8 1021.3 1021.3 0.0
27/06:30pm 15.7 14.3 8.9 64 3.5 W 6 9 3 5 1021.0 1021.0 0.0
27/06:00pm 16.6 15.2 9.5 63 3.7 WNW 7 9 4 5 1020.8 1020.8 0.0
27/05:30pm 16.5 15.7 11.0 70 3.0 NNW 6 9 3 5 1020.7 1020.7 0.0
27/05:00pm 17.9 17.4 12.1 69 3.2 N 6 9 3 5 1020.5 1020.5 0.0
27/04:30pm 18.5 18.1 11.1 62 4.0 NNW 4 9 2 5 1020.4 1020.4 0.0
27/04:00pm 18.6 17.8 10.9 61 4.2 N 6 9 3 5 1020.4 1020.4 0.0
27/03:30pm 18.8 17.9 10.6 59 4.4 NNE 6 11 3 6 1020.5 1020.5 0.0
27/03:00pm 19.1 17.8 9.3 53 5.2 N 6 9 3 5 1020.5 1020.5 0.0

Latest Capital City Observations: Canberra | Sydney | Melbourne | Brisbane | Adelaide | Perth | Hobart | Darwin

Other Formats:

Comma delimited format used in spreadsheet applications
http://www.bom.gov.au/fwo/IDN60903/IDN60903.94938.axf

JavaScript Object Notation format (JSON) in row-major order
http://www.bom.gov.au/fwo/IDN60903/IDN60903.94938.json